sensor_id;sensor_type;location;lat;lon;timestamp;P1;durP1;ratioP1;P2;durP2;ratioP2
6414;SDS011;3240;48.790;9.210;2023-02-28T00:01:32;6.23;;;2.20;;
6414;SDS011;3240;48.790;9.210;2023-02-28T00:04:01;3.93;;;2.33;;
6414;SDS011;3240;48.790;9.210;2023-02-28T00:06:28;4.00;;;2.67;;
6414;SDS011;3240;48.790;9.210;2023-02-28T00:08:57;2.70;;;2.10;;
6414;SDS011;3240;48.790;9.210;2023-02-28T00:11:25;2.07;;;1.90;;
6414;SDS011;3240;48.790;9.210;2023-02-28T00:13:53;4.97;;;2.60;;
6414;SDS011;3240;48.790;9.210;2023-02-28T00:16:21;3.90;;;2.30;;
6414;SDS011;3240;48.790;9.210;2023-02-28T00:18:49;3.92;;;2.12;;
6414;SDS011;3240;48.790;9.210;2023-02-28T00:21:17;6.77;;;2.40;;
6414;SDS011;3240;48.790;9.210;2023-02-28T00:23:46;3.63;;;2.30;;
6414;SDS011;3240;48.790;9.210;2023-02-28T00:26:14;4.00;;;2.17;;
6414;SDS011;3240;48.790;9.210;2023-02-28T00:28:42;3.67;;;2.10;;
6414;SDS011;3240;48.790;9.210;2023-02-28T00:31:10;7.10;;;2.40;;
6414;SDS011;3240;48.790;9.210;2023-02-28T00:33:38;8.00;;;2.40;;
6414;SDS011;3240;48.790;9.210;2023-02-28T00:36:07;1.97;;;1.80;;
6414;SDS011;3240;48.790;9.210;2023-02-28T00:38:34;6.03;;;2.43;;
6414;SDS011;3240;48.790;9.210;2023-02-28T00:41:02;5.40;;;2.10;;
6414;SDS011;3240;48.790;9.210;2023-02-28T00:43:32;4.73;;;2.27;;
6414;SDS011;3240;48.790;9.210;2023-02-28T00:46:00;4.73;;;2.57;;
6414;SDS011;3240;48.790;9.210;2023-02-28T00:48:28;3.37;;;2.53;;
6414;SDS011;3240;48.790;9.210;2023-02-28T00:50:56;3.10;;;2.10;;
6414;SDS011;3240;48.790;9.210;2023-02-28T00:53:24;7.63;;;2.60;;
6414;SDS011;3240;48.790;9.210;2023-02-28T00:55:52;4.20;;;2.50;;
6414;SDS011;3240;48.790;9.210;2023-02-28T00:58:20;3.97;;;2.27;;
6414;SDS011;3240;48.790;9.210;2023-02-28T01:00:48;7.93;;;2.60;;
6414;SDS011;3240;48.790;9.210;2023-02-28T01:03:16;3.00;;;2.27;;
6414;SDS011;3240;48.790;9.210;2023-02-28T01:05:44;3.13;;;2.40;;
6414;SDS011;3240;48.790;9.210;2023-02-28T01:08:12;3.73;;;1.97;;
6414;SDS011;3240;48.790;9.210;2023-02-28T01:10:40;5.10;;;2.70;;
6414;SDS011;3240;48.790;9.210;2023-02-28T01:13:08;4.17;;;2.40;;
6414;SDS011;3240;48.790;9.210;2023-02-28T01:15:36;5.27;;;2.60;;
6414;SDS011;3240;48.790;9.210;2023-02-28T01:18:04;6.10;;;2.30;;
6414;SDS011;3240;48.790;9.210;2023-02-28T01:20:32;3.53;;;2.37;;
6414;SDS011;3240;48.790;9.210;2023-02-28T01:23:00;4.60;;;2.80;;
6414;SDS011;3240;48.790;9.210;2023-02-28T01:25:28;3.40;;;2.50;;
6414;SDS011;3240;48.790;9.210;2023-02-28T01:27:56;3.43;;;2.83;;
6414;SDS011;3240;48.790;9.210;2023-02-28T01:30:24;4.93;;;2.53;;
6414;SDS011;3240;48.790;9.210;2023-02-28T01:32:52;4.90;;;2.50;;
6414;SDS011;3240;48.790;9.210;2023-02-28T01:35:20;4.80;;;2.50;;
6414;SDS011;3240;48.790;9.210;2023-02-28T01:37:48;6.53;;;2.80;;
6414;SDS011;3240;48.790;9.210;2023-02-28T01:40:16;4.40;;;2.33;;
6414;SDS011;3240;48.790;9.210;2023-02-28T01:42:44;4.23;;;2.50;;
6414;SDS011;3240;48.790;9.210;2023-02-28T01:47:46;4.90;;;2.93;;
6414;SDS011;3240;48.790;9.210;2023-02-28T01:50:16;4.00;;;2.90;;
6414;SDS011;3240;48.790;9.210;2023-02-28T01:52:42;8.33;;;3.13;;
6414;SDS011;3240;48.790;9.210;2023-02-28T01:55:11;5.23;;;2.70;;
6414;SDS011;3240;48.790;9.210;2023-02-28T01:57:40;5.83;;;3.10;;
6414;SDS011;3240;48.790;9.210;2023-02-28T02:00:08;4.50;;;3.10;;
6414;SDS011;3240;48.790;9.210;2023-02-28T02:02:36;4.90;;;2.60;;
6414;SDS011;3240;48.790;9.210;2023-02-28T02:05:06;7.40;;;2.90;;
6414;SDS011;3240;48.790;9.210;2023-02-28T02:07:35;4.73;;;2.50;;
6414;SDS011;3240;48.790;9.210;2023-02-28T02:10:05;3.93;;;2.80;;
6414;SDS011;3240;48.790;9.210;2023-02-28T02:15:17;6.20;;;3.60;;
6414;SDS011;3240;48.790;9.210;2023-02-28T02:17:45;5.40;;;3.13;;
6414;SDS011;3240;48.790;9.210;2023-02-28T02:20:56;3.80;;;2.73;;
6414;SDS011;3240;48.790;9.210;2023-02-28T02:28:53;4.23;;;3.00;;
6414;SDS011;3240;48.790;9.210;2023-02-28T02:31:24;7.90;;;2.97;;
6414;SDS011;3240;48.790;9.210;2023-02-28T02:36:24;5.53;;;3.57;;
6414;SDS011;3240;48.790;9.210;2023-02-28T02:39:01;5.87;;;3.10;;
6414;SDS011;3240;48.790;9.210;2023-02-28T02:41:28;4.47;;;3.10;;
6414;SDS011;3240;48.790;9.210;2023-02-28T02:43:57;9.23;;;3.80;;
6414;SDS011;3240;48.790;9.210;2023-02-28T02:46:28;6.17;;;3.37;;
6414;SDS011;3240;48.790;9.210;2023-02-28T02:48:54;5.47;;;3.40;;
6414;SDS011;3240;48.790;9.210;2023-02-28T02:51:22;4.23;;;2.77;;
6414;SDS011;3240;48.790;9.210;2023-02-28T02:53:55;7.10;;;3.87;;
6414;SDS011;3240;48.790;9.210;2023-02-28T02:56:23;5.47;;;3.67;;
6414;SDS011;3240;48.790;9.210;2023-02-28T02:58:50;5.83;;;3.17;;
6414;SDS011;3240;48.790;9.210;2023-02-28T03:01:19;5.90;;;3.43;;
6414;SDS011;3240;48.790;9.210;2023-02-28T03:03:46;4.20;;;2.97;;
6414;SDS011;3240;48.790;9.210;2023-02-28T03:06:14;6.80;;;3.50;;
6414;SDS011;3240;48.790;9.210;2023-02-28T03:08:42;5.57;;;3.60;;
6414;SDS011;3240;48.790;9.210;2023-02-28T03:11:12;5.80;;;3.67;;
6414;SDS011;3240;48.790;9.210;2023-02-28T03:13:42;5.63;;;3.53;;
6414;SDS011;3240;48.790;9.210;2023-02-28T03:16:17;10.47;;;4.10;;
6414;SDS011;3240;48.790;9.210;2023-02-28T03:18:44;5.57;;;3.80;;
6414;SDS011;3240;48.790;9.210;2023-02-28T03:21:14;8.00;;;3.50;;
6414;SDS011;3240;48.790;9.210;2023-02-28T03:23:42;6.40;;;3.40;;
6414;SDS011;3240;48.790;9.210;2023-02-28T03:26:13;4.77;;;3.00;;
6414;SDS011;3240;48.790;9.210;2023-02-28T03:28:42;5.97;;;3.60;;
6414;SDS011;3240;48.790;9.210;2023-02-28T03:31:13;7.00;;;3.80;;
6414;SDS011;3240;48.790;9.210;2023-02-28T03:33:41;7.40;;;3.87;;
6414;SDS011;3240;48.790;9.210;2023-02-28T03:36:09;5.40;;;3.90;;
6414;SDS011;3240;48.790;9.210;2023-02-28T03:38:40;8.60;;;4.33;;
6414;SDS011;3240;48.790;9.210;2023-02-28T03:41:13;6.20;;;4.10;;
6414;SDS011;3240;48.790;9.210;2023-02-28T03:43:41;5.03;;;3.10;;
6414;SDS011;3240;48.790;9.210;2023-02-28T03:46:10;4.67;;;3.20;;
6414;SDS011;3240;48.790;9.210;2023-02-28T03:48:40;5.57;;;3.27;;
6414;SDS011;3240;48.790;9.210;2023-02-28T03:51:07;5.37;;;3.40;;
6414;SDS011;3240;48.790;9.210;2023-02-28T03:53:35;7.60;;;4.00;;
6414;SDS011;3240;48.790;9.210;2023-02-28T03:56:07;7.13;;;3.67;;
6414;SDS011;3240;48.790;9.210;2023-02-28T03:58:37;8.80;;;3.80;;
6414;SDS011;3240;48.790;9.210;2023-02-28T04:01:07;8.53;;;3.60;;
6414;SDS011;3240;48.790;9.210;2023-02-28T04:03:34;5.97;;;3.83;;
6414;SDS011;3240;48.790;9.210;2023-02-28T04:06:02;4.93;;;3.40;;
6414;SDS011;3240;48.790;9.210;2023-02-28T04:08:30;9.87;;;4.37;;
6414;SDS011;3240;48.790;9.210;2023-02-28T04:11:01;8.00;;;4.83;;
6414;SDS011;3240;48.790;9.210;2023-02-28T04:13:27;7.17;;;4.60;;
6414;SDS011;3240;48.790;9.210;2023-02-28T04:15:55;7.00;;;4.30;;
6414;SDS011;3240;48.790;9.210;2023-02-28T04:18:23;6.90;;;3.97;;
6414;SDS011;3240;48.790;9.210;2023-02-28T04:20:52;9.90;;;4.60;;
6414;SDS011;3240;48.790;9.210;2023-02-28T04:23:20;5.27;;;3.60;;
6414;SDS011;3240;48.790;9.210;2023-02-28T04:25:48;10.50;;;4.67;;
6414;SDS011;3240;48.790;9.210;2023-02-28T04:28:16;7.80;;;4.53;;
6414;SDS011;3240;48.790;9.210;2023-02-28T04:30:44;7.23;;;3.97;;
6414;SDS011;3240;48.790;9.210;2023-02-28T04:33:12;4.80;;;3.70;;
6414;SDS011;3240;48.790;9.210;2023-02-28T04:35:40;9.47;;;4.00;;
6414;SDS011;3240;48.790;9.210;2023-02-28T04:38:08;6.83;;;3.43;;
6414;SDS011;3240;48.790;9.210;2023-02-28T04:40:36;7.83;;;4.40;;
6414;SDS011;3240;48.790;9.210;2023-02-28T04:43:04;7.73;;;4.17;;
6414;SDS011;3240;48.790;9.210;2023-02-28T04:45:32;11.50;;;4.60;;
6414;SDS011;3240;48.790;9.210;2023-02-28T04:48:00;6.97;;;4.37;;
6414;SDS011;3240;48.790;9.210;2023-02-28T04:50:28;8.45;;;4.90;;
6414;SDS011;3240;48.790;9.210;2023-02-28T04:52:56;7.77;;;4.10;;
6414;SDS011;3240;48.790;9.210;2023-02-28T04:55:24;7.13;;;4.57;;
6414;SDS011;3240;48.790;9.210;2023-02-28T04:57:52;5.50;;;3.80;;
6414;SDS011;3240;48.790;9.210;2023-02-28T05:00:20;5.60;;;3.70;;
6414;SDS011;3240;48.790;9.210;2023-02-28T05:02:48;6.60;;;4.43;;
6414;SDS011;3240;48.790;9.210;2023-02-28T05:05:16;8.80;;;4.27;;
6414;SDS011;3240;48.790;9.210;2023-02-28T05:07:44;6.90;;;4.23;;
6414;SDS011;3240;48.790;9.210;2023-02-28T05:10:12;7.47;;;4.40;;
6414;SDS011;3240;48.790;9.210;2023-02-28T05:12:40;7.73;;;4.50;;
6414;SDS011;3240;48.790;9.210;2023-02-28T05:15:10;8.97;;;4.90;;
6414;SDS011;3240;48.790;9.210;2023-02-28T05:17:37;8.10;;;4.40;;
6414;SDS011;3240;48.790;9.210;2023-02-28T05:20:05;8.23;;;4.40;;
6414;SDS011;3240;48.790;9.210;2023-02-28T05:22:33;7.13;;;4.60;;
6414;SDS011;3240;48.790;9.210;2023-02-28T05:25:01;11.20;;;4.50;;
6414;SDS011;3240;48.790;9.210;2023-02-28T05:27:29;8.83;;;4.80;;
6414;SDS011;3240;48.790;9.210;2023-02-28T05:29:58;7.47;;;4.80;;
6414;SDS011;3240;48.790;9.210;2023-02-28T05:32:25;6.10;;;4.27;;
6414;SDS011;3240;48.790;9.210;2023-02-28T05:34:53;8.63;;;4.33;;
6414;SDS011;3240;48.790;9.210;2023-02-28T05:37:22;8.60;;;4.93;;
6414;SDS011;3240;48.790;9.210;2023-02-28T05:39:50;8.27;;;4.43;;
6414;SDS011;3240;48.790;9.210;2023-02-28T05:42:18;7.43;;;4.30;;
6414;SDS011;3240;48.790;9.210;2023-02-28T05:44:46;7.20;;;4.73;;
6414;SDS011;3240;48.790;9.210;2023-02-28T05:47:14;8.70;;;5.20;;
6414;SDS011;3240;48.790;9.210;2023-02-28T05:49:42;7.70;;;5.00;;
6414;SDS011;3240;48.790;9.210;2023-02-28T05:52:10;7.47;;;4.50;;
6414;SDS011;3240;48.790;9.210;2023-02-28T05:54:38;9.40;;;4.63;;
6414;SDS011;3240;48.790;9.210;2023-02-28T05:57:06;8.63;;;4.50;;
6414;SDS011;3240;48.790;9.210;2023-02-28T05:59:34;9.10;;;4.93;;
6414;SDS011;3240;48.790;9.210;2023-02-28T06:02:02;9.23;;;5.30;;
6414;SDS011;3240;48.790;9.210;2023-02-28T06:04:30;7.40;;;4.80;;
6414;SDS011;3240;48.790;9.210;2023-02-28T06:06:58;11.23;;;5.40;;
6414;SDS011;3240;48.790;9.210;2023-02-28T06:09:26;10.90;;;5.40;;
6414;SDS011;3240;48.790;9.210;2023-02-28T06:11:54;11.00;;;4.93;;
6414;SDS011;3240;48.790;9.210;2023-02-28T06:14:22;8.97;;;5.17;;
6414;SDS011;3240;48.790;9.210;2023-02-28T06:16:50;9.60;;;4.57;;
6414;SDS011;3240;48.790;9.210;2023-02-28T06:19:18;8.37;;;4.87;;
6414;SDS011;3240;48.790;9.210;2023-02-28T06:21:48;7.67;;;5.63;;
6414;SDS011;3240;48.790;9.210;2023-02-28T06:24:14;7.07;;;4.53;;
6414;SDS011;3240;48.790;9.210;2023-02-28T06:26:42;8.70;;;5.10;;
6414;SDS011;3240;48.790;9.210;2023-02-28T06:29:10;9.00;;;4.37;;
6414;SDS011;3240;48.790;9.210;2023-02-28T06:31:38;11.00;;;5.50;;
6414;SDS011;3240;48.790;9.210;2023-02-28T06:34:06;9.70;;;5.90;;
6414;SDS011;3240;48.790;9.210;2023-02-28T06:36:34;13.23;;;5.67;;
6414;SDS011;3240;48.790;9.210;2023-02-28T06:39:02;11.73;;;6.30;;
6414;SDS011;3240;48.790;9.210;2023-02-28T06:41:30;13.13;;;5.10;;
6414;SDS011;3240;48.790;9.210;2023-02-28T06:43:58;10.23;;;5.47;;
6414;SDS011;3240;48.790;9.210;2023-02-28T06:46:26;8.80;;;5.97;;
6414;SDS011;3240;48.790;9.210;2023-02-28T06:48:54;10.10;;;5.13;;
6414;SDS011;3240;48.790;9.210;2023-02-28T06:51:22;7.83;;;4.93;;
6414;SDS011;3240;48.790;9.210;2023-02-28T06:53:50;10.70;;;5.80;;
6414;SDS011;3240;48.790;9.210;2023-02-28T06:56:19;10.70;;;5.73;;
6414;SDS011;3240;48.790;9.210;2023-02-28T06:58:47;10.57;;;5.00;;
6414;SDS011;3240;48.790;9.210;2023-02-28T07:01:15;8.03;;;5.37;;
6414;SDS011;3240;48.790;9.210;2023-02-28T07:03:43;11.30;;;5.70;;
6414;SDS011;3240;48.790;9.210;2023-02-28T07:06:11;14.13;;;7.27;;
6414;SDS011;3240;48.790;9.210;2023-02-28T07:08:39;12.87;;;6.70;;
6414;SDS011;3240;48.790;9.210;2023-02-28T07:11:07;10.20;;;5.50;;
6414;SDS011;3240;48.790;9.210;2023-02-28T07:13:35;11.40;;;5.80;;
6414;SDS011;3240;48.790;9.210;2023-02-28T07:16:04;12.43;;;6.17;;
6414;SDS011;3240;48.790;9.210;2023-02-28T07:18:31;11.83;;;5.80;;
6414;SDS011;3240;48.790;9.210;2023-02-28T07:21:01;7.83;;;5.00;;
6414;SDS011;3240;48.790;9.210;2023-02-28T07:23:27;10.77;;;5.63;;
6414;SDS011;3240;48.790;9.210;2023-02-28T07:25:55;13.70;;;5.97;;
6414;SDS011;3240;48.790;9.210;2023-02-28T07:28:23;12.13;;;6.30;;
6414;SDS011;3240;48.790;9.210;2023-02-28T07:30:51;9.67;;;5.97;;
6414;SDS011;3240;48.790;9.210;2023-02-28T07:33:19;10.77;;;6.43;;
6414;SDS011;3240;48.790;9.210;2023-02-28T07:35:47;12.43;;;5.80;;
6414;SDS011;3240;48.790;9.210;2023-02-28T07:38:15;11.70;;;6.63;;
6414;SDS011;3240;48.790;9.210;2023-02-28T07:40:43;11.70;;;5.93;;
6414;SDS011;3240;48.790;9.210;2023-02-28T07:43:11;8.70;;;5.10;;
6414;SDS011;3240;48.790;9.210;2023-02-28T07:45:39;10.37;;;5.30;;
6414;SDS011;3240;48.790;9.210;2023-02-28T07:48:07;15.48;;;8.50;;
6414;SDS011;3240;48.790;9.210;2023-02-28T07:50:35;13.43;;;7.40;;
6414;SDS011;3240;48.790;9.210;2023-02-28T07:53:03;10.63;;;7.23;;
6414;SDS011;3240;48.790;9.210;2023-02-28T07:55:31;9.57;;;6.17;;
6414;SDS011;3240;48.790;9.210;2023-02-28T07:57:59;11.63;;;5.87;;
6414;SDS011;3240;48.790;9.210;2023-02-28T08:00:27;11.07;;;6.90;;
6414;SDS011;3240;48.790;9.210;2023-02-28T08:02:55;13.00;;;6.77;;
6414;SDS011;3240;48.790;9.210;2023-02-28T08:05:23;12.20;;;7.40;;
6414;SDS011;3240;48.790;9.210;2023-02-28T08:07:51;14.18;;;8.60;;
6414;SDS011;3240;48.790;9.210;2023-02-28T08:10:19;13.57;;;6.37;;
6414;SDS011;3240;48.790;9.210;2023-02-28T08:12:48;11.23;;;6.60;;
6414;SDS011;3240;48.790;9.210;2023-02-28T08:15:16;13.33;;;6.80;;
6414;SDS011;3240;48.790;9.210;2023-02-28T08:17:44;11.10;;;5.97;;
6414;SDS011;3240;48.790;9.210;2023-02-28T08:20:12;11.77;;;7.10;;
6414;SDS011;3240;48.790;9.210;2023-02-28T08:22:40;12.80;;;6.70;;
6414;SDS011;3240;48.790;9.210;2023-02-28T08:25:08;15.57;;;7.90;;
6414;SDS011;3240;48.790;9.210;2023-02-28T08:27:36;9.60;;;6.10;;
6414;SDS011;3240;48.790;9.210;2023-02-28T08:30:04;11.77;;;6.40;;
6414;SDS011;3240;48.790;9.210;2023-02-28T08:32:33;10.10;;;6.60;;
6414;SDS011;3240;48.790;9.210;2023-02-28T08:35:01;10.63;;;7.07;;
6414;SDS011;3240;48.790;9.210;2023-02-28T08:37:29;12.17;;;6.60;;
6414;SDS011;3240;48.790;9.210;2023-02-28T08:39:57;11.97;;;7.00;;
6414;SDS011;3240;48.790;9.210;2023-02-28T08:42:25;12.50;;;7.43;;
6414;SDS011;3240;48.790;9.210;2023-02-28T08:44:53;12.00;;;6.77;;
6414;SDS011;3240;48.790;9.210;2023-02-28T08:47:21;18.37;;;6.93;;
6414;SDS011;3240;48.790;9.210;2023-02-28T08:49:49;13.93;;;7.20;;
6414;SDS011;3240;48.790;9.210;2023-02-28T08:52:17;11.30;;;6.83;;
6414;SDS011;3240;48.790;9.210;2023-02-28T08:54:45;10.67;;;7.10;;
6414;SDS011;3240;48.790;9.210;2023-02-28T08:57:13;11.53;;;7.43;;
6414;SDS011;3240;48.790;9.210;2023-02-28T08:59:41;13.17;;;6.60;;
6414;SDS011;3240;48.790;9.210;2023-02-28T09:02:12;12.10;;;7.17;;
6414;SDS011;3240;48.790;9.210;2023-02-28T09:04:37;14.00;;;7.93;;
6414;SDS011;3240;48.790;9.210;2023-02-28T09:07:05;12.97;;;7.47;;
6414;SDS011;3240;48.790;9.210;2023-02-28T09:09:33;17.67;;;6.50;;
6414;SDS011;3240;48.790;9.210;2023-02-28T09:12:02;15.10;;;7.73;;
6414;SDS011;3240;48.790;9.210;2023-02-28T09:14:30;14.03;;;7.10;;
6414;SDS011;3240;48.790;9.210;2023-02-28T09:16:58;10.20;;;6.10;;
6414;SDS011;3240;48.790;9.210;2023-02-28T09:19:26;14.60;;;7.43;;
6414;SDS011;3240;48.790;9.210;2023-02-28T09:21:54;17.33;;;8.07;;
6414;SDS011;3240;48.790;9.210;2023-02-28T09:24:22;12.10;;;7.23;;
6414;SDS011;3240;48.790;9.210;2023-02-28T09:26:50;12.40;;;6.63;;
6414;SDS011;3240;48.790;9.210;2023-02-28T09:29:18;17.30;;;8.33;;
6414;SDS011;3240;48.790;9.210;2023-02-28T09:31:46;15.90;;;8.37;;
6414;SDS011;3240;48.790;9.210;2023-02-28T09:34:14;13.73;;;7.00;;
6414;SDS011;3240;48.790;9.210;2023-02-28T09:36:42;18.50;;;6.93;;
6414;SDS011;3240;48.790;9.210;2023-02-28T09:39:11;14.17;;;8.20;;
6414;SDS011;3240;48.790;9.210;2023-02-28T09:41:41;15.23;;;7.90;;
6414;SDS011;3240;48.790;9.210;2023-02-28T09:44:09;11.03;;;6.60;;
6414;SDS011;3240;48.790;9.210;2023-02-28T09:46:37;10.17;;;6.83;;
6414;SDS011;3240;48.790;9.210;2023-02-28T09:49:05;13.13;;;7.30;;
6414;SDS011;3240;48.790;9.210;2023-02-28T09:51:34;11.20;;;7.87;;
6414;SDS011;3240;48.790;9.210;2023-02-28T09:54:01;14.30;;;8.57;;
6414;SDS011;3240;48.790;9.210;2023-02-28T09:56:32;12.17;;;7.10;;
6414;SDS011;3240;48.790;9.210;2023-02-28T09:59:01;14.83;;;7.50;;
6414;SDS011;3240;48.790;9.210;2023-02-28T10:01:33;13.20;;;7.73;;
6414;SDS011;3240;48.790;9.210;2023-02-28T10:04:00;19.60;;;8.93;;
6414;SDS011;3240;48.790;9.210;2023-02-28T10:06:29;12.87;;;7.03;;
6414;SDS011;3240;48.790;9.210;2023-02-28T10:09:00;12.80;;;7.47;;
6414;SDS011;3240;48.790;9.210;2023-02-28T10:11:25;13.17;;;8.17;;
6414;SDS011;3240;48.790;9.210;2023-02-28T10:14:02;15.03;;;8.20;;
6414;SDS011;3240;48.790;9.210;2023-02-28T10:16:35;10.73;;;7.60;;
6414;SDS011;3240;48.790;9.210;2023-02-28T10:19:04;12.90;;;7.90;;
6414;SDS011;3240;48.790;9.210;2023-02-28T10:21:34;17.57;;;8.20;;
6414;SDS011;3240;48.790;9.210;2023-02-28T10:24:03;12.63;;;7.97;;
6414;SDS011;3240;48.790;9.210;2023-02-28T10:26:31;10.53;;;7.00;;
6414;SDS011;3240;48.790;9.210;2023-02-28T10:28:58;14.33;;;7.97;;
6414;SDS011;3240;48.790;9.210;2023-02-28T10:31:27;12.17;;;7.20;;
6414;SDS011;3240;48.790;9.210;2023-02-28T10:33:55;13.87;;;7.00;;
6414;SDS011;3240;48.790;9.210;2023-02-28T10:36:23;11.30;;;7.43;;
6414;SDS011;3240;48.790;9.210;2023-02-28T10:38:51;11.90;;;7.70;;
6414;SDS011;3240;48.790;9.210;2023-02-28T10:43:53;12.07;;;7.80;;
6414;SDS011;3240;48.790;9.210;2023-02-28T10:46:21;12.73;;;7.87;;
6414;SDS011;3240;48.790;9.210;2023-02-28T10:49:00;14.57;;;8.40;;
6414;SDS011;3240;48.790;9.210;2023-02-28T10:51:25;14.37;;;8.00;;
6414;SDS011;3240;48.790;9.210;2023-02-28T10:53:53;19.10;;;9.00;;
6414;SDS011;3240;48.790;9.210;2023-02-28T10:56:22;13.53;;;8.30;;
6414;SDS011;3240;48.790;9.210;2023-02-28T10:58:53;17.57;;;8.07;;
6414;SDS011;3240;48.790;9.210;2023-02-28T11:01:21;12.70;;;7.17;;
6414;SDS011;3240;48.790;9.210;2023-02-28T11:03:48;15.50;;;7.73;;
6414;SDS011;3240;48.790;9.210;2023-02-28T11:06:18;14.00;;;7.67;;
6414;SDS011;3240;48.790;9.210;2023-02-28T11:08:46;12.47;;;7.80;;
6414;SDS011;3240;48.790;9.210;2023-02-28T11:11:13;12.30;;;7.90;;
6414;SDS011;3240;48.790;9.210;2023-02-28T11:13:41;12.50;;;7.60;;
6414;SDS011;3240;48.790;9.210;2023-02-28T11:16:10;16.73;;;8.53;;
6414;SDS011;3240;48.790;9.210;2023-02-28T11:18:40;13.23;;;7.80;;
6414;SDS011;3240;48.790;9.210;2023-02-28T11:21:06;11.57;;;7.30;;
6414;SDS011;3240;48.790;9.210;2023-02-28T11:23:35;12.73;;;8.00;;
6414;SDS011;3240;48.790;9.210;2023-02-28T11:26:03;11.47;;;7.13;;
6414;SDS011;3240;48.790;9.210;2023-02-28T11:28:34;15.30;;;7.40;;
6414;SDS011;3240;48.790;9.210;2023-02-28T11:31:04;14.77;;;8.40;;
6414;SDS011;3240;48.790;9.210;2023-02-28T11:33:31;13.37;;;7.70;;
6414;SDS011;3240;48.790;9.210;2023-02-28T11:36:00;18.57;;;7.93;;
6414;SDS011;3240;48.790;9.210;2023-02-28T11:38:26;12.87;;;7.10;;
6414;SDS011;3240;48.790;9.210;2023-02-28T11:41:09;15.00;;;8.40;;
6414;SDS011;3240;48.790;9.210;2023-02-28T11:43:57;13.37;;;7.47;;
6414;SDS011;3240;48.790;9.210;2023-02-28T11:46:29;13.07;;;7.57;;
6414;SDS011;3240;48.790;9.210;2023-02-28T11:48:58;15.17;;;8.40;;
6414;SDS011;3240;48.790;9.210;2023-02-28T11:54:27;13.97;;;8.33;;
6414;SDS011;3240;48.790;9.210;2023-02-28T11:56:54;13.60;;;6.93;;
6414;SDS011;3240;48.790;9.210;2023-02-28T11:59:26;14.27;;;8.17;;
6414;SDS011;3240;48.790;9.210;2023-02-28T12:01:59;12.10;;;7.47;;
6414;SDS011;3240;48.790;9.210;2023-02-28T12:04:24;14.47;;;8.97;;
6414;SDS011;3240;48.790;9.210;2023-02-28T12:06:54;12.03;;;8.07;;
6414;SDS011;3240;48.790;9.210;2023-02-28T12:12:21;12.20;;;8.30;;
6414;SDS011;3240;48.790;9.210;2023-02-28T12:17:29;18.17;;;9.10;;
6414;SDS011;3240;48.790;9.210;2023-02-28T12:20:02;12.90;;;8.57;;
6414;SDS011;3240;48.790;9.210;2023-02-28T12:22:30;12.33;;;7.67;;
6414;SDS011;3240;48.790;9.210;2023-02-28T12:27:43;15.33;;;7.77;;
6414;SDS011;3240;48.790;9.210;2023-02-28T12:30:15;10.90;;;6.70;;
6414;SDS011;3240;48.790;9.210;2023-02-28T12:32:42;11.90;;;7.73;;
6414;SDS011;3240;48.790;9.210;2023-02-28T12:35:13;12.63;;;7.17;;
6414;SDS011;3240;48.790;9.210;2023-02-28T12:37:46;10.80;;;7.53;;
6414;SDS011;3240;48.790;9.210;2023-02-28T12:40:14;12.60;;;6.80;;
6414;SDS011;3240;48.790;9.210;2023-02-28T12:42:44;13.80;;;7.13;;
6414;SDS011;3240;48.790;9.210;2023-02-28T12:45:12;11.60;;;7.30;;
6414;SDS011;3240;48.790;9.210;2023-02-28T12:47:38;17.23;;;7.27;;
6414;SDS011;3240;48.790;9.210;2023-02-28T12:50:07;13.00;;;8.03;;
6414;SDS011;3240;48.790;9.210;2023-02-28T12:52:37;12.90;;;7.83;;
6414;SDS011;3240;48.790;9.210;2023-02-28T12:55:05;16.90;;;8.77;;
6414;SDS011;3240;48.790;9.210;2023-02-28T12:57:34;12.77;;;8.47;;
6414;SDS011;3240;48.790;9.210;2023-02-28T13:00:00;11.83;;;7.40;;
6414;SDS011;3240;48.790;9.210;2023-02-28T13:02:33;13.87;;;9.30;;
6414;SDS011;3240;48.790;9.210;2023-02-28T13:10:13;15.27;;;8.80;;
6414;SDS011;3240;48.790;9.210;2023-02-28T13:12:49;13.70;;;7.93;;
6414;SDS011;3240;48.790;9.210;2023-02-28T13:15:21;14.37;;;8.73;;
6414;SDS011;3240;48.790;9.210;2023-02-28T13:17:48;10.53;;;7.40;;
6414;SDS011;3240;48.790;9.210;2023-02-28T13:20:21;11.33;;;8.00;;
6414;SDS011;3240;48.790;9.210;2023-02-28T13:22:49;11.63;;;7.73;;
6414;SDS011;3240;48.790;9.210;2023-02-28T13:25:49;14.07;;;8.00;;
6414;SDS011;3240;48.790;9.210;2023-02-28T13:27:52;14.83;;;8.57;;
6414;SDS011;3240;48.790;9.210;2023-02-28T13:35:42;12.20;;;7.93;;
6414;SDS011;3240;48.790;9.210;2023-02-28T13:38:09;13.60;;;8.60;;
6414;SDS011;3240;48.790;9.210;2023-02-28T13:40:36;9.13;;;7.60;;
6414;SDS011;3240;48.790;9.210;2023-02-28T13:43:07;14.23;;;7.63;;
6414;SDS011;3240;48.790;9.210;2023-02-28T13:45:34;11.90;;;7.67;;
6414;SDS011;3240;48.790;9.210;2023-02-28T13:48:02;11.30;;;8.37;;
6414;SDS011;3240;48.790;9.210;2023-02-28T13:50:34;14.27;;;8.63;;
6414;SDS011;3240;48.790;9.210;2023-02-28T13:53:08;8.80;;;7.27;;
6414;SDS011;3240;48.790;9.210;2023-02-28T13:58:19;12.80;;;7.80;;
6414;SDS011;3240;48.790;9.210;2023-02-28T14:00:50;19.53;;;7.77;;
6414;SDS011;3240;48.790;9.210;2023-02-28T14:08:33;10.27;;;7.40;;
6414;SDS011;3240;48.790;9.210;2023-02-28T14:11:04;13.53;;;7.37;;
6414;SDS011;3240;48.790;9.210;2023-02-28T14:16:03;11.47;;;7.63;;
6414;SDS011;3240;48.790;9.210;2023-02-28T14:18:32;12.17;;;7.70;;
6414;SDS011;3240;48.790;9.210;2023-02-28T14:21:34;8.87;;;7.30;;
6414;SDS011;3240;48.790;9.210;2023-02-28T14:23:50;12.33;;;8.30;;
6414;SDS011;3240;48.790;9.210;2023-02-28T14:26:19;13.93;;;8.60;;
6414;SDS011;3240;48.790;9.210;2023-02-28T14:28:47;19.53;;;8.50;;
6414;SDS011;3240;48.790;9.210;2023-02-28T14:31:21;11.67;;;7.47;;
6414;SDS011;3240;48.790;9.210;2023-02-28T14:36:22;11.00;;;7.50;;
6414;SDS011;3240;48.790;9.210;2023-02-28T14:38:51;11.00;;;7.77;;
6414;SDS011;3240;48.790;9.210;2023-02-28T14:41:22;10.20;;;6.30;;
6414;SDS011;3240;48.790;9.210;2023-02-28T14:43:49;11.27;;;7.33;;
6414;SDS011;3240;48.790;9.210;2023-02-28T14:46:17;9.93;;;6.77;;
6414;SDS011;3240;48.790;9.210;2023-02-28T14:48:45;10.83;;;7.60;;
6414;SDS011;3240;48.790;9.210;2023-02-28T14:51:17;12.37;;;8.40;;
6414;SDS011;3240;48.790;9.210;2023-02-28T14:53:41;11.00;;;7.60;;
6414;SDS011;3240;48.790;9.210;2023-02-28T14:56:17;11.33;;;8.00;;
6414;SDS011;3240;48.790;9.210;2023-02-28T14:58:37;11.37;;;8.20;;
6414;SDS011;3240;48.790;9.210;2023-02-28T15:01:05;15.30;;;8.27;;
6414;SDS011;3240;48.790;9.210;2023-02-28T15:03:35;12.83;;;8.30;;
6414;SDS011;3240;48.790;9.210;2023-02-28T15:06:04;17.97;;;8.20;;
6414;SDS011;3240;48.790;9.210;2023-02-28T15:08:31;11.50;;;7.50;;
6414;SDS011;3240;48.790;9.210;2023-02-28T15:11:00;15.03;;;6.90;;
6414;SDS011;3240;48.790;9.210;2023-02-28T15:13:34;11.63;;;8.10;;
6414;SDS011;3240;48.790;9.210;2023-02-28T15:15:59;13.65;;;8.40;;
6414;SDS011;3240;48.790;9.210;2023-02-28T15:18:32;11.50;;;6.90;;
6414;SDS011;3240;48.790;9.210;2023-02-28T15:20:59;14.10;;;7.73;;
6414;SDS011;3240;48.790;9.210;2023-02-28T15:23:26;11.73;;;7.73;;
6414;SDS011;3240;48.790;9.210;2023-02-28T15:25:54;12.70;;;7.90;;
6414;SDS011;3240;48.790;9.210;2023-02-28T15:28:22;14.43;;;8.80;;
6414;SDS011;3240;48.790;9.210;2023-02-28T15:30:58;11.80;;;8.13;;
6414;SDS011;3240;48.790;9.210;2023-02-28T15:33:28;14.33;;;8.67;;
6414;SDS011;3240;48.790;9.210;2023-02-28T15:38:29;13.43;;;8.73;;
6414;SDS011;3240;48.790;9.210;2023-02-28T15:40:57;12.87;;;8.30;;
6414;SDS011;3240;48.790;9.210;2023-02-28T15:43:29;17.90;;;8.47;;
6414;SDS011;3240;48.790;9.210;2023-02-28T15:45:59;12.57;;;7.30;;
6414;SDS011;3240;48.790;9.210;2023-02-28T15:48:32;11.70;;;8.40;;
6414;SDS011;3240;48.790;9.210;2023-02-28T15:51:06;11.43;;;8.00;;
6414;SDS011;3240;48.790;9.210;2023-02-28T15:53:32;13.73;;;7.97;;
6414;SDS011;3240;48.790;9.210;2023-02-28T15:56:00;12.33;;;8.63;;
6414;SDS011;3240;48.790;9.210;2023-02-28T15:58:26;17.20;;;8.83;;
6414;SDS011;3240;48.790;9.210;2023-02-28T16:03:44;12.87;;;8.27;;
6414;SDS011;3240;48.790;9.210;2023-02-28T16:06:21;13.83;;;8.27;;
6414;SDS011;3240;48.790;9.210;2023-02-28T16:08:47;11.73;;;7.70;;
6414;SDS011;3240;48.790;9.210;2023-02-28T16:11:15;12.90;;;8.77;;
6414;SDS011;3240;48.790;9.210;2023-02-28T16:13:43;12.30;;;7.70;;